Time;durP1;ratioP1;P1;durP2;ratioP2;P2;SDS_P1;SDS_P2;PMS_P1;PMS_P2;Temp;Humidity;BMP_temperature;BMP_pressure;BME280_temperature;BME280_humidity;BME280_pressure;Samples;Min_cycle;Max_cycle;Signal;HPM_P1;HPM_P2
2021/10/11 00:00:25;;;;;;;54.57;35.37;;;;;;;;;;4930325;29;20636;-91
2021/10/11 00:02:54;;;;;;;58.70;38.17;;;9.70;99.90;;;;;;4930437;29;20620;-92
2021/10/11 00:05:21;;;;;;;64.50;40.63;;;12.30;99.90;;;;;;4931657;29;20509;-92
2021/10/11 00:07:47;;;;;;;64.27;39.17;;;11.10;99.90;;;;;;4931731;29;20935;-93
2021/10/11 00:10:19;;;;;;;60.03;39.33;;;9.60;99.90;;;;;;4933492;29;20416;-93
2021/10/11 00:12:48;;;;;;;63.60;38.30;;;10.50;99.90;;;;;;4931754;29;20416;-93
2021/10/11 00:15:16;;;;;;;49.27;35.20;;;10.00;99.90;;;;;;4930654;29;20436;-92
2021/10/11 00:17:42;;;;;;;52.83;36.37;;;10.10;99.90;;;;;;4929834;29;20459;-92
2021/10/11 00:20:11;;;;;;;57.13;37.87;;;9.00;99.90;;;;;;4930429;29;20416;-93
2021/10/11 00:22:37;;;;;;;60.67;38.10;;;9.80;99.90;;;;;;4929359;29;20467;-92
2021/10/11 00:25:04;;;;;;;58.30;39.00;;;9.80;99.90;;;;;;4930545;29;20435;-93
2021/10/11 00:27:31;;;;;;;60.33;39.40;;;10.30;99.90;;;;;;4931285;29;20187;-93
2021/10/11 00:29:57;;;;;;;59.20;39.13;;;9.50;99.90;;;;;;4931366;29;20919;-92
2021/10/11 00:32:23;;;;;;;55.43;40.70;;;11.40;99.90;;;;;;4932369;29;20579;-93
2021/10/11 00:34:49;;;;;;;57.50;37.87;;;9.80;99.90;;;;;;4932845;29;20419;-93
2021/10/11 00:37:18;;;;;;;56.00;37.63;;;;;;;;;;4932858;29;20281;-92
2021/10/11 00:39:43;;;;;;;57.67;39.30;;;9.90;99.90;;;;;;4931113;29;20443;-92
2021/10/11 00:42:10;;;;;;;59.47;36.47;;;;;;;;;;4931925;29;20438;-93
2021/10/11 00:44:36;;;;;;;59.70;40.70;;;10.00;99.90;;;;;;4933557;29;20191;-91
2021/10/11 00:47:02;;;;;;;59.90;40.43;;;10.70;99.90;;;;;;4934087;29;20419;-92
2021/10/11 00:49:29;;;;;;;62.57;39.20;;;10.10;99.90;;;;;;4916057;29;20179;-93
2021/10/11 00:51:55;;;;;;;58.50;40.30;;;10.80;99.90;;;;;;4934242;29;20427;-93
2021/10/11 00:54:23;;;;;;;60.00;40.50;;;10.10;99.90;;;;;;4936172;29;20423;-93
2021/10/11 00:56:50;;;;;;;57.97;39.63;;;10.60;99.90;;;;;;4949723;29;20474;-93
2021/10/11 00:59:16;;;;;;;68.80;43.50;;;11.80;99.90;;;;;;4931287;29;20427;-93
2021/10/11 01:01:42;;;;;;;64.70;43.23;;;9.80;99.90;;;;;;4931399;29;20474;-92
2021/10/11 01:04:08;;;;;;;58.80;40.67;;;;;;;;;;4931264;29;20171;-93
2021/10/11 01:06:37;;;;;;;62.57;40.20;;;10.40;99.90;;;;;;4928600;29;20308;-93
2021/10/11 01:09:04;;;;;;;64.90;44.07;;;12.00;99.90;;;;;;4932592;29;20512;-93
2021/10/11 01:11:30;;;;;;;58.60;39.10;;;11.10;99.90;;;;;;4929474;29;20524;-93
2021/10/11 01:13:56;;;;;;;58.97;42.50;;;;;;;;;;4928983;29;20507;-94
2021/10/11 01:16:22;;;;;;;67.10;42.80;;;10.70;99.90;;;;;;4928328;29;20210;-92
2021/10/11 01:18:48;;;;;;;53.73;38.83;;;;;;;;;;4928553;29;20429;-93
2021/10/11 01:21:14;;;;;;;58.73;38.57;;;;;;;;;;4928486;29;20628;-93
2021/10/11 01:23:40;;;;;;;62.27;41.67;;;;;;;;;;4930327;29;20478;-92
2021/10/11 01:26:06;;;;;;;60.87;40.30;;;;;;;;;;4930370;29;20446;-92
2021/10/11 01:28:31;;;;;;;63.13;41.77;;;10.70;99.90;;;;;;4931452;29;20415;-92
2021/10/11 01:30:57;;;;;;;55.80;42.87;;;9.60;99.90;;;;;;4930667;29;20447;-91
2021/10/11 01:33:23;;;;;;;63.90;42.07;;;;;;;;;;4930197;29;20183;-92
2021/10/11 01:35:50;;;;;;;61.70;40.80;;;10.80;99.90;;;;;;4931438;29;20179;-92
2021/10/11 01:38:16;;;;;;;66.13;44.40;;;13.30;99.90;;;;;;4932745;29;20537;-92
2021/10/11 01:40:42;;;;;;;67.10;43.33;;;12.10;99.90;;;;;;4934092;29;20434;-93
2021/10/11 01:43:09;;;;;;;69.80;45.40;;;11.00;99.90;;;;;;4934402;29;20443;-93
2021/10/11 01:45:35;;;;;;;70.10;45.90;;;13.40;99.90;;;;;;4935507;29;20430;-93
2021/10/11 01:48:05;;;;;;;61.90;45.07;;;10.40;99.90;;;;;;4936279;29;20612;-94
2021/10/11 01:50:34;;;;;;;73.63;47.50;;;11.40;99.90;;;;;;4937362;29;20461;-93
2021/10/11 01:53:03;;;;;;;74.40;47.93;;;11.70;99.90;;;;;;4937614;29;20459;-94
2021/10/11 01:55:28;;;;;;;82.70;46.80;;;9.90;99.90;;;;;;4936962;29;20862;-95
2021/10/11 01:57:55;;;;;;;77.70;48.80;;;;;;;;;;4937377;29;20470;-93
2021/10/11 02:00:20;;;;;;;70.63;45.03;;;11.00;99.90;;;;;;4936189;29;20431;-93
2021/10/11 02:02:47;;;;;;;73.43;48.00;;;11.40;99.90;;;;;;4953670;29;20415;-94
2021/10/11 02:05:13;;;;;;;81.87;49.80;;;;;;;;;;4935836;29;20455;-95
2021/10/11 02:07:39;;;;;;;78.20;46.67;;;12.20;99.90;;;;;;4936045;29;20186;-94
2021/10/11 02:10:07;;;;;;;80.27;50.80;;;11.80;99.90;;;;;;4935855;29;20427;-93
2021/10/11 02:12:33;;;;;;;79.67;49.97;;;11.40;99.90;;;;;;4933757;29;20427;-93
2021/10/11 02:14:59;;;;;;;77.60;51.33;;;12.70;99.90;;;;;;4953150;29;20411;-93
2021/10/11 02:17:24;;;;;;;79.80;47.60;;;13.20;99.90;;;;;;4936588;29;20782;-94
2021/10/11 02:19:51;;;;;;;81.17;48.20;;;;;;;;;;4935194;29;20190;-93
2021/10/11 02:22:21;;;;;;;87.57;53.70;;;11.50;99.90;;;;;;4935317;29;20583;-93
2021/10/11 02:24:47;;;;;;;84.10;50.63;;;12.70;99.90;;;;;;4933674;29;20466;-93
2021/10/11 02:27:13;;;;;;;84.53;52.03;;;;;;;;;;4953283;29;20450;-93
2021/10/11 02:29:39;;;;;;;98.27;54.80;;;11.40;99.90;;;;;;4936125;29;20659;-94
2021/10/11 02:32:07;;;;;;;95.20;55.53;;;11.80;99.90;;;;;;4936404;29;20419;-94
2021/10/11 02:34:33;;;;;;;104.80;59.83;;;11.30;99.90;;;;;;4921337;29;20176;-93
2021/10/11 02:36:59;;;;;;;107.20;65.03;;;11.60;99.90;;;;;;4935993;29;20502;-93
2021/10/11 02:39:25;;;;;;;116.13;63.67;;;11.40;99.90;;;;;;4935433;29;20427;-93
2021/10/11 02:41:51;;;;;;;114.43;64.00;;;13.00;99.90;;;;;;4952114;29;20427;-93
2021/10/11 02:44:18;;;;;;;131.33;66.70;;;12.90;99.90;;;;;;4953642;29;20274;-93
2021/10/11 02:46:46;;;;;;;114.57;63.47;;;11.80;99.90;;;;;;4933714;29;20179;-94
2021/10/11 02:49:12;;;;;;;120.97;66.17;;;12.10;99.90;;;;;;4930096;29;20954;-92
2021/10/11 02:51:38;;;;;;;125.17;70.67;;;11.60;99.90;;;;;;4930042;29;20439;-91
2021/10/11 02:54:04;;;;;;;122.60;63.80;;;;;;;;;;4947106;29;20430;-92
2021/10/11 02:56:29;;;;;;;120.70;64.63;;;11.20;99.90;;;;;;4930082;29;20230;-92
2021/10/11 02:58:55;;;;;;;135.07;68.97;;;14.00;99.90;;;;;;4946438;29;20495;-92
2021/10/11 03:01:21;;;;;;;120.30;65.53;;;11.10;99.90;;;;;;4932687;29;20184;-94
2021/10/11 03:03:47;;;;;;;103.53;58.77;;;;;;;;;;4925724;29;20191;-93
2021/10/11 03:06:12;;;;;;;110.87;56.70;;;11.40;99.90;;;;;;4924487;29;20183;-93
2021/10/11 03:08:38;;;;;;;111.27;60.60;;;;;;;;;;4927257;29;20427;-93
2021/10/11 03:11:04;;;;;;;112.23;62.00;;;11.40;99.90;;;;;;4922510;29;20206;-92
2021/10/11 03:13:30;;;;;;;115.67;63.20;;;;;;;;;;4938812;29;20419;-92
2021/10/11 03:15:56;;;;;;;111.63;58.60;;;11.40;99.90;;;;;;4925390;29;20625;-93
2021/10/11 03:18:22;;;;;;;98.73;53.67;;;11.20;99.90;;;;;;4923888;29;20517;-93
2021/10/11 03:20:48;;;;;;;102.30;54.27;;;13.00;99.90;;;;;;4923736;29;20423;-93
2021/10/11 03:23:14;;;;;;;91.13;51.47;;;11.50;99.90;;;;;;4923188;29;20535;-92
2021/10/11 03:25:40;;;;;;;97.43;52.50;;;;;;;;;;4923458;29;20465;-93
2021/10/11 03:28:05;;;;;;;83.00;50.37;;;11.80;99.90;;;;;;4925599;29;20178;-92
2021/10/11 03:30:32;;;;;;;76.07;46.70;;;14.50;99.90;;;;;;4924725;29;20824;-91
2021/10/11 03:32:58;;;;;;;74.03;45.50;;;12.90;99.90;;;;;;4934124;29;20202;-91
2021/10/11 03:35:24;;;;;;;80.83;47.10;;;12.40;99.90;;;;;;4936198;29;20439;-89
2021/10/11 03:37:50;;;;;;;75.27;46.10;;;12.60;99.90;;;;;;4954576;29;20466;-92
2021/10/11 03:40:16;;;;;;;89.70;51.07;;;13.40;99.90;;;;;;4933113;29;20595;-92
2021/10/11 03:42:42;;;;;;;86.67;49.67;;;;;;;;;;4944237;29;20432;-93
2021/10/11 03:45:08;;;;;;;75.03;44.70;;;11.90;99.90;;;;;;4928857;29;20322;-93
2021/10/11 03:47:37;;;;;;;82.80;46.33;;;12.10;99.90;;;;;;4927209;29;20459;-93
2021/10/11 03:50:03;;;;;;;83.73;48.43;;;16.40;99.90;;;;;;4927567;29;20446;-89
2021/10/11 03:52:29;;;;;;;84.03;47.37;;;11.90;99.90;;;;;;4927081;29;20427;-92
2021/10/11 03:54:57;;;;;;;80.60;46.20;;;13.50;99.90;;;;;;4929625;29;20438;-92
2021/10/11 03:57:25;;;;;;;91.17;46.00;;;9.50;99.90;;;;;;4933723;29;20210;-93
2021/10/11 03:59:52;;;;;;;77.37;43.90;;;14.20;99.90;;;;;;4947629;29;20403;-93
2021/10/11 04:02:18;;;;;;;77.07;43.87;;;13.80;99.90;;;;;;4946681;29;20417;-92
2021/10/11 04:04:44;;;;;;;70.03;42.73;;;11.80;99.90;;;;;;4929942;29;20416;-93
2021/10/11 04:07:12;;;;;;;73.40;42.47;;;11.80;99.90;;;;;;4930934;29;20830;-93
2021/10/11 04:09:41;;;;;;;66.93;42.80;;;12.10;99.90;;;;;;4930279;29;20199;-92
2021/10/11 04:12:09;;;;;;;72.80;42.80;;;13.90;99.90;;;;;;4930769;29;20443;-93
2021/10/11 04:14:35;;;;;;;76.40;40.90;;;13.00;99.90;;;;;;4931068;29;20425;-92
2021/10/11 04:17:01;;;;;;;77.40;43.67;;;;;;;;;;4931085;29;20526;-91
2021/10/11 04:19:27;;;;;;;75.17;41.33;;;12.10;99.90;;;;;;4934218;29;20447;-94
2021/10/11 04:21:53;;;;;;;66.90;41.80;;;12.20;99.90;;;;;;4929743;29;20601;-91
2021/10/11 04:24:19;;;;;;;70.60;40.90;;;14.70;99.90;;;;;;4946846;29;20467;-93
2021/10/11 04:26:45;;;;;;;82.27;42.63;;;;;;;;;;4945820;29;20171;-93
2021/10/11 04:29:11;;;;;;;67.33;35.93;;;12.00;99.90;;;;;;4927351;29;20179;-93
2021/10/11 04:31:36;;;;;;;70.67;41.87;;;13.10;99.90;;;;;;4927907;29;20502;-95
2021/10/11 04:34:02;;;;;;;70.60;39.57;;;;;;;;;;4925440;29;20207;-94
2021/10/11 04:36:28;;;;;;;71.43;41.97;;;12.00;99.90;;;;;;4927638;29;20553;-94
2021/10/11 04:38:54;;;;;;;69.90;38.00;;;;;;;;;;4928379;29;20454;-94
2021/10/11 04:41:20;;;;;;;73.63;40.57;;;11.90;99.90;;;;;;4930194;29;20242;-91
2021/10/11 04:43:49;;;;;;;65.93;40.93;;;11.70;99.90;;;;;;4929719;29;20459;-94
2021/10/11 04:46:16;;;;;;;73.03;40.30;;;13.30;99.90;;;;;;4929187;29;20189;-94
2021/10/11 04:48:41;;;;;;;67.73;38.33;;;14.40;99.90;;;;;;4929198;29;20423;-93
2021/10/11 04:51:07;;;;;;;63.47;40.80;;;;;;;;;;4931007;29;20419;-94
2021/10/11 04:53:33;;;;;;;82.83;44.60;;;12.00;99.90;;;;;;4932157;29;20482;-94
2021/10/11 04:56:01;;;;;;;81.27;46.37;;;14.00;99.90;;;;;;4951432;29;20427;-94
2021/10/11 04:58:27;;;;;;;76.53;43.17;;;13.30;99.90;;;;;;4948526;29;20443;-93
2021/10/11 05:00:53;;;;;;;90.87;47.53;;;;;;;;;;4934960;29;20419;-92
2021/10/11 05:03:19;;;;;;;79.97;45.23;;;12.00;99.90;;;;;;4938106;29;20510;-94
2021/10/11 05:05:46;;;;;;;78.27;45.70;;;11.30;99.90;;;;;;4936348;29;20930;-93
2021/10/11 05:08:12;;;;;;;95.63;49.37;;;10.00;99.90;;;;;;4920997;29;20647;-91
2021/10/11 05:10:44;;;;;;;72.87;40.10;;;;;;;;;;4955633;29;20438;-94
2021/10/11 05:13:24;;;;;;;92.47;46.77;;;12.00;99.90;;;;;;4955287;29;20183;-92
2021/10/11 05:15:50;;;;;;;85.33;45.27;;;14.50;99.90;;;;;;4936902;29;20465;-93
2021/10/11 05:18:17;;;;;;;78.03;42.70;;;11.40;99.90;;;;;;4938490;29;20498;-93
2021/10/11 05:20:49;;;;;;;55.33;32.40;;;11.80;99.90;;;;;;4938051;29;20175;-92
2021/10/11 05:23:15;;;;;;;67.67;38.07;;;13.90;99.90;;;;;;4936490;29;20981;-92
2021/10/11 05:25:41;;;;;;;74.50;38.83;;;12.30;99.90;;;;;;4938832;29;20433;-92
2021/10/11 05:28:08;;;;;;;53.87;30.87;;;12.10;99.90;;;;;;4937006;29;20419;-92
2021/10/11 05:30:33;;;;;;;68.87;35.27;;;14.20;99.90;;;;;;4937848;29;20183;-92
2021/10/11 05:33:00;;;;;;;53.17;32.77;;;12.30;99.90;;;;;;4951333;29;20419;-93
2021/10/11 05:35:26;;;;;;;58.15;32.35;;;14.20;99.90;;;;;;4590419;29;9999904;-91
2021/10/11 05:37:57;;;;;;;39.87;23.63;;;11.70;99.90;;;;;;4948845;29;20828;-94
2021/10/11 05:40:23;;;;;;;53.20;29.20;;;12.50;99.90;;;;;;4929875;29;20744;-94
2021/10/11 05:42:48;;;;;;;62.90;34.80;;;12.60;99.90;;;;;;4931614;29;20427;-92
2021/10/11 05:45:14;;;;;;;60.80;33.87;;;14.60;99.90;;;;;;4936519;29;20172;-93
2021/10/11 05:47:42;;;;;;;57.60;35.87;;;11.80;99.90;;;;;;4918762;29;20180;-92
2021/10/11 05:50:09;;;;;;;64.77;34.07;;;12.20;99.90;;;;;;4933136;29;20471;-91
2021/10/11 05:52:38;;;;;;;57.93;32.80;;;12.70;99.90;;;;;;4934494;29;20463;-92
2021/10/11 05:55:05;;;;;;;53.00;34.07;;;13.00;99.90;;;;;;4930716;29;20434;-93
2021/10/11 05:57:34;;;;;;;59.10;33.00;;;12.20;99.90;;;;;;4932333;29;20470;-94
2021/10/11 06:00:16;;;;;;;64.30;35.77;;;13.70;99.90;;;;;;4927212;29;20456;-93
2021/10/11 06:05:54;;;;;;;61.20;35.57;;;13.60;99.90;;;;;;4900772;29;20518;-93
2021/10/11 06:08:21;;;;;;;55.90;32.10;;;12.00;99.90;;;;;;4892233;29;20567;-94
2021/10/11 06:10:57;;;;;;;53.40;32.10;;;12.80;99.90;;;;;;4890861;29;20429;-93
2021/10/11 06:13:50;;;;;;;50.93;31.17;;;12.50;99.90;;;;;;4892619;29;20794;-95
2021/10/11 06:16:22;;;;;;;50.57;30.20;;;13.80;99.90;;;;;;4892080;29;20432;-93
2021/10/11 06:18:48;;;;;;;50.57;30.03;;;15.10;99.90;;;;;;4890834;29;20441;-92
2021/10/11 06:21:22;;;;;;;47.87;29.37;;;14.00;99.90;;;;;;4907700;29;20425;-93
2021/10/11 06:23:51;;;;;;;48.80;28.97;;;11.40;99.90;;;;;;4898762;29;20323;-92
2021/10/11 06:26:40;;;;;;;52.33;31.30;;;14.00;99.90;;;;;;4908868;29;20425;-92
2021/10/11 06:29:16;;;;;;;50.37;33.53;;;12.80;99.90;;;;;;4909960;29;20441;-91
2021/10/11 06:31:43;;;;;;;48.77;26.17;;;13.30;99.90;;;;;;4907614;29;20413;-93
2021/10/11 06:34:20;;;;;;;49.87;30.10;;;11.70;99.90;;;;;;4911052;29;20452;-91
2021/10/11 06:36:48;;;;;;;49.50;27.63;;;12.20;99.90;;;;;;4922915;29;20886;-87
2021/10/11 06:39:14;;;;;;;48.77;29.20;;;11.70;99.90;;;;;;4927159;29;20432;-93
2021/10/11 06:41:40;;;;;;;60.00;29.10;;;14.00;99.90;;;;;;4928763;29;20435;-92
2021/10/11 06:44:06;;;;;;;43.50;26.20;;;11.90;99.90;;;;;;4928231;29;20183;-92
2021/10/11 06:46:38;;;;;;;45.73;28.10;;;12.30;99.90;;;;;;4929408;29;20424;-93
2021/10/11 06:49:04;;;;;;;45.80;27.00;;;12.40;99.90;;;;;;4933562;29;20227;-92
2021/10/11 06:51:30;;;;;;;43.57;26.20;;;13.40;99.90;;;;;;4934932;29;20447;-92
2021/10/11 06:54:15;;;;;;;41.97;27.77;;;12.90;99.90;;;;;;4930223;29;20196;-92
2021/10/11 06:56:42;;;;;;;48.57;28.97;;;13.20;99.90;;;;;;4931756;29;20476;-92
2021/10/11 06:59:07;;;;;;;48.50;30.80;;;15.20;99.90;;;;;;4917523;29;20430;-92
2021/10/11 07:01:33;;;;;;;43.13;24.97;;;;;;;;;;4932658;29;20452;-92
2021/10/11 07:04:00;;;;;;;53.23;30.13;;;12.10;99.90;;;;;;4933270;29;20187;-92
2021/10/11 07:06:26;;;;;;;52.00;32.40;;;14.80;99.90;;;;;;4925886;29;20428;-88
2021/10/11 07:08:53;;;;;;;43.50;28.47;;;;;;;;;;4928678;29;20456;-87
2021/10/11 07:11:19;;;;;;;49.73;27.70;;;12.10;99.90;;;;;;4926817;29;20180;-89
2021/10/11 07:13:46;;;;;;;53.40;30.97;;;16.10;99.90;;;;;;4929492;29;20423;-91
2021/10/11 07:16:17;;;;;;;52.60;30.17;;;;;;;;;;4930363;29;20459;-89
2021/10/11 07:18:43;;;;;;;43.60;26.47;;;12.30;99.90;;;;;;4932563;29;20474;-89
2021/10/11 07:21:13;;;;;;;38.43;24.00;;;12.90;99.90;;;;;;4928200;29;20460;-90
2021/10/11 07:23:40;;;;;;;36.97;23.00;;;13.20;99.90;;;;;;4928201;29;20467;-91
2021/10/11 07:26:08;;;;;;;37.43;20.90;;;14.00;99.90;;;;;;4913244;29;20421;-91
2021/10/11 07:28:35;;;;;;;32.57;20.87;;;14.10;99.90;;;;;;4930560;29;20424;-90
2021/10/11 07:31:01;;;;;;;36.63;22.10;;;16.50;99.90;;;;;;4929450;29;20424;-89
2021/10/11 07:33:26;;;;;;;27.00;18.40;;;15.30;99.90;;;;;;4930745;29;20441;-87
2021/10/11 07:35:53;;;;;;;28.60;19.00;;;;;;;;;;4914097;29;20507;-87
2021/10/11 07:38:25;;;;;;;24.87;17.23;;;13.90;99.90;;;;;;4930135;29;20218;-89
2021/10/11 07:40:53;;;;;;;28.17;17.97;;;16.70;99.90;;;;;;4930611;29;20444;-90
2021/10/11 07:43:19;;;;;;;30.37;18.97;;;14.40;99.90;;;;;;4928295;29;20432;-89
2021/10/11 07:45:51;;;;;;;28.57;19.87;;;13.40;99.90;;;;;;4928500;29;20446;-89
2021/10/11 07:48:25;;;;;;;24.80;17.60;;;15.30;99.90;;;;;;4929746;29;20745;-91
2021/10/11 07:50:51;;;;;;;26.27;18.30;;;14.40;99.90;;;;;;4925839;29;20435;-87
2021/10/11 07:53:19;;;;;;;29.40;15.87;;;14.90;99.90;;;;;;4927610;29;20467;-90
2021/10/11 07:55:44;;;;;;;25.97;17.90;;;15.20;99.90;;;;;;4916538;29;20238;-90
2021/10/11 07:58:10;;;;;;;26.87;17.13;;;;;;;;;;4917106;29;20467;-90
2021/10/11 08:00:36;;;;;;;23.33;17.40;;;13.50;99.90;;;;;;4918369;29;20647;-89
2021/10/11 08:03:02;;;;;;;29.90;16.33;;;14.90;99.90;;;;;;4917357;29;20511;-88
2021/10/11 08:05:27;;;;;;;19.70;15.20;;;13.70;99.90;;;;;;4918141;29;20689;-89
2021/10/11 08:07:53;;;;;;;26.63;14.77;;;;;;;;;;4905422;29;20519;-90
2021/10/11 08:10:19;;;;;;;23.77;16.50;;;13.90;99.90;;;;;;4917379;29;20231;-89
2021/10/11 08:12:46;;;;;;;21.77;15.47;;;13.60;99.90;;;;;;4918144;29;20955;-91
2021/10/11 08:15:11;;;;;;;23.50;13.20;;;13.50;99.90;;;;;;4912896;29;20232;-89
2021/10/11 08:17:38;;;;;;;17.77;14.97;;;;;;;;;;4903912;29;20501;-88
2021/10/11 08:20:07;;;;;;;23.73;14.90;;;14.00;99.90;;;;;;4917522;29;20263;-88
2021/10/11 08:22:33;;;;;;;20.63;11.83;;;14.00;99.90;;;;;;4933936;29;20558;-90
2021/10/11 08:24:59;;;;;;;23.07;13.17;;;14.60;99.90;;;;;;4920738;29;20461;-89
2021/10/11 08:27:25;;;;;;;15.80;11.83;;;17.00;99.90;;;;;;4918394;29;20427;-90
2021/10/11 08:29:51;;;;;;;22.23;14.80;;;13.40;99.90;;;;;;4917596;29;20639;-87
2021/10/11 08:32:21;;;;;;;20.37;14.53;;;16.10;99.90;;;;;;4916504;29;20476;-89
2021/10/11 08:34:47;;;;;;;19.80;11.67;;;14.10;99.90;;;;;;4919503;29;20404;-88
2021/10/11 08:37:13;;;;;;;12.00;10.70;;;13.00;99.90;;;;;;4921337;29;20455;-89
2021/10/11 08:39:39;;;;;;;17.27;11.30;;;16.00;99.90;;;;;;4921598;29;20416;-88
2021/10/11 08:42:05;;;;;;;19.43;11.33;;;16.30;99.90;;;;;;4920032;29;20416;-88
2021/10/11 08:44:32;;;;;;;14.07;12.63;;;13.70;99.90;;;;;;4922287;29;20219;-89
2021/10/11 08:46:59;;;;;;;13.20;10.17;;;14.60;99.90;;;;;;4921383;29;20408;-89
2021/10/11 08:49:25;;;;;;;12.50;10.83;;;16.10;99.90;;;;;;4920885;29;20451;-89
2021/10/11 08:51:50;;;;;;;12.17;8.67;;;13.90;99.90;;;;;;4923529;29;20415;-89
2021/10/11 08:54:16;;;;;;;17.10;10.10;;;15.90;99.90;;;;;;4920507;29;20428;-88
2021/10/11 08:56:42;;;;;;;10.50;9.43;;;13.60;99.90;;;;;;4919165;29;20696;-89
2021/10/11 08:59:07;;;;;;;13.40;8.87;;;17.30;99.90;;;;;;4920841;29;20671;-89
2021/10/11 09:01:33;;;;;;;9.97;8.10;;;14.90;99.90;;;;;;4921219;29;20183;-89
2021/10/11 09:04:03;;;;;;;18.20;9.40;;;17.00;99.90;;;;;;4923837;29;20187;-91
2021/10/11 09:06:28;;;;;;;13.97;9.87;;;14.70;99.90;;;;;;4941332;29;20179;-88
2021/10/11 09:08:54;;;;;;;13.07;8.93;;;14.20;99.90;;;;;;4940008;29;20502;-89
2021/10/11 09:11:19;;;;;;;15.30;9.23;;;16.20;99.90;;;;;;4954719;29;20639;-88
2021/10/11 09:13:51;;;;;;;15.00;7.70;;;14.50;99.90;;;;;;4938049;29;20258;-90
2021/10/11 09:16:29;;;;;;;14.77;8.30;;;14.20;99.90;;;;;;4609124;29;10000206;-90
2021/10/11 09:18:58;;;;;;;16.10;8.00;;;14.60;99.90;;;;;;4918874;29;20187;-89
2021/10/11 09:21:30;;;;;;;16.00;8.07;;;16.80;99.90;;;;;;4920866;29;20435;-89
2021/10/11 09:24:13;;;;;;;13.70;8.13;;;14.20;99.90;;;;;;4927437;29;20515;-90
2021/10/11 09:26:49;;;;;;;10.90;7.23;;;14.40;99.90;;;;;;4928443;29;20423;-89
2021/10/11 09:29:28;;;;;;;13.23;7.33;;;16.30;99.90;;;;;;4930300;29;20798;-90
2021/10/11 09:31:54;;;;;;;13.60;6.17;;;16.20;99.90;;;;;;4917662;29;20504;-90
2021/10/11 09:34:21;;;;;;;10.70;7.10;;;15.90;99.90;;;;;;4931343;29;20479;-90
2021/10/11 09:37:02;;;;;;;9.77;6.40;;;14.90;99.90;;;;;;4930017;29;20546;-89
2021/10/11 09:39:30;;;;;;;8.20;6.00;;;15.70;99.90;;;;;;4924946;29;20423;-90
2021/10/11 09:41:57;;;;;;;8.90;6.60;;;17.60;99.90;;;;;;4921705;29;20412;-90
2021/10/11 09:44:23;;;;;;;8.67;5.50;;;16.10;99.90;;;;;;4924697;29;20448;-90
2021/10/11 09:46:57;;;;;;;13.03;7.13;;;14.90;99.90;;;;;;4920735;29;20431;-88
2021/10/11 09:49:24;;;;;;;12.10;4.97;;;14.20;99.90;;;;;;4909720;29;20444;-89
2021/10/11 09:51:53;;;;;;;18.30;7.77;;;15.50;99.90;;;;;;4915693;29;20951;-91
2021/10/11 09:54:20;;;;;;;9.13;5.10;;;14.40;99.90;;;;;;4917982;29;20467;-89
2021/10/11 09:56:47;;;;;;;8.57;5.50;;;16.10;99.90;;;;;;4917082;29;20515;-88
2021/10/11 09:59:13;;;;;;;15.47;6.50;;;16.70;99.90;;;;;;4921370;29;20523;-90
2021/10/11 10:01:46;;;;;;;6.97;5.50;;;13.80;97.90;;;;;;4920472;29;20427;-88
2021/10/11 10:04:28;;;;;;;10.33;7.37;;;14.50;98.30;;;;;;4919156;29;20432;-89
2021/10/11 10:07:00;;;;;;;6.90;5.10;;;16.20;99.50;;;;;;4923591;29;20939;-90
2021/10/11 10:09:30;;;;;;;12.50;5.40;;;18.30;99.40;;;;;;4936181;29;20423;-90
2021/10/11 10:11:57;;;;;;;12.60;7.00;;;15.90;96.80;;;;;;4943129;29;20407;-90
2021/10/11 10:14:56;;;;;;;9.77;6.23;;;18.40;97.00;;;;;;4923610;29;20467;-91
2021/10/11 10:18:01;;;;;;;10.40;6.73;;;17.20;94.00;;;;;;4927650;29;20531;-90
2021/10/11 10:24:16;;;;;;;10.63;6.63;;;17.60;91.90;;;;;;4897553;29;20473;-89
2021/10/11 10:32:06;;;;;;;9.90;6.30;;;18.10;88.90;;;;;;4968577;28;20489;-90
2021/10/11 10:34:32;;;;;;;12.73;5.67;;;17.80;86.60;;;;;;4955930;29;20418;-91
2021/10/11 10:36:59;;;;;;;12.27;10.43;;;16.40;85.10;;;;;;4969451;28;21335;-91
2021/10/11 10:40:22;;;;;;;9.27;5.13;;;17.50;87.70;;;;;;4971901;29;20215;-92
2021/10/11 10:42:50;;;;;;;11.20;5.30;;;19.00;87.30;;;;;;4896925;29;20475;-91
2021/10/11 10:45:36;;;;;;;6.00;4.60;;;17.90;88.00;;;;;;4894950;29;20422;-92
2021/10/11 10:48:21;;;;;;;6.60;4.47;;;19.50;77.60;;;;;;4894819;29;20853;-90
2021/10/11 10:50:47;;;;;;;6.73;4.70;;;20.70;83.30;;;;;;4892296;29;20986;-90
2021/10/11 10:53:28;;;;;;;6.50;4.90;;;20.30;73.50;;;;;;4892289;29;20420;-93
2021/10/11 10:55:55;;;;;;;13.93;6.00;;;19.90;69.80;;;;;;4892782;29;20433;-91
2021/10/11 10:58:26;;;;;;;7.07;5.50;;;19.50;72.30;;;;;;4892487;29;20567;-90
2021/10/11 11:01:05;;;;;;;6.13;4.90;;;21.00;75.60;;;;;;4890497;29;20426;-86
2021/10/11 11:03:31;;;;;;;6.53;4.57;;;19.50;69.40;;;;;;4891753;29;20437;-90
2021/10/11 11:06:06;;;;;;;8.83;6.57;;;20.30;69.20;;;;;;4888588;29;20419;-91
2021/10/11 11:08:55;;;;;;;10.20;5.70;;;19.10;70.10;;;;;;4949866;29;20184;-94
2021/10/11 11:11:31;;;;;;;9.60;7.10;;;21.10;70.80;;;;;;4952245;29;20443;-93
2021/10/11 11:14:01;;;;;;;6.70;6.00;;;17.10;69.70;;;;;;4949290;29;20500;-91
2021/10/11 11:17:15;;;;;;;7.00;5.33;;;19.60;74.60;;;;;;4951782;29;20479;-92
2021/10/11 11:19:43;;;;;;;6.03;5.37;;;19.80;76.20;;;;;;4956457;29;20442;-90
2021/10/11 11:22:48;;;;;;;;;;;;;;;;;;;;;
2021/10/11 11:25:41;;;;;;;6.93;4.77;;;19.10;66.30;;;;;;4936806;29;20459;-93
2021/10/11 11:29:04;;;;;;;9.80;6.07;;;19.60;70.60;;;;;;4951251;29;20514;-92
2021/10/11 11:31:44;;;;;;;;;;;;;;;;;;;;;
2021/10/11 11:34:19;;;;;;;12.87;4.60;;;19.40;77.20;;;;;;4614063;28;9999858;-90
2021/10/11 11:36:53;;;;;;;8.10;4.30;;;18.70;69.80;;;;;;4959914;29;20202;-93
2021/10/11 11:39:30;;;;;;;14.63;5.47;;;20.40;61.50;;;;;;4969421;29;20435;-93
2021/10/11 11:42:08;;;;;;;5.30;2.47;;;21.90;64.40;;;;;;4957934;29;20429;-89
2021/10/11 11:45:19;;;;;;;3.60;2.13;;;21.90;57.80;;;;;;4975899;28;20417;-91
2021/10/11 11:47:56;;;;;;;3.60;2.47;;;;;;;;;;4971712;28;20469;-90
2021/10/11 11:53:36;;;;;;;;;;;;;;;;;;;;;
2021/10/11 11:56:57;;;;;;;;;;;;;;;;;;;;;
2021/10/11 11:59:27;;;;;;;3.40;3.07;;;21.00;51.60;;;;;;4970547;28;20469;-94
2021/10/11 12:02:00;;;;;;;2.97;2.67;;;18.30;53.70;;;;;;4967530;29;20415;-93
2021/10/11 12:04:44;;;;;;;7.07;3.53;;;18.00;54.80;;;;;;4968915;29;20453;-94
2021/10/11 12:07:21;;;;;;;4.87;3.57;;;18.90;56.10;;;;;;4955828;29;20433;-93
2021/10/11 12:09:49;;;;;;;7.80;2.53;;;19.90;59.20;;;;;;4970276;28;20486;-88
2021/10/11 12:12:35;;;;;;;2.60;2.40;;;18.50;59.30;;;;;;4972491;29;20475;-92
2021/10/11 12:15:37;;;;;;;5.37;2.63;;;18.30;58.00;;;;;;4955655;29;20493;-93
2021/10/11 12:18:39;;;;;;;3.70;2.50;;;18.00;58.70;;;;;;4966092;28;20497;-93
2021/10/11 12:21:27;;;;;;;2.67;2.47;;;18.20;59.30;;;;;;4966452;29;20477;-90
2021/10/11 12:23:55;;;;;;;15.13;2.17;;;18.10;59.90;;;;;;4969684;29;20438;-94
2021/10/11 12:26:57;;;;;;;3.03;2.20;;;20.20;61.50;;;;;;4967287;29;20432;-89
2021/10/11 12:29:27;;;;;;;1.73;1.43;;;19.70;58.90;;;;;;4955039;29;20452;-89
2021/10/11 12:32:03;;;;;;;5.13;2.60;;;18.90;59.70;;;;;;4958477;29;20524;-92
2021/10/11 12:35:36;;;;;;;5.07;2.50;;;18.30;59.20;;;;;;4967784;29;20459;-90
2021/10/11 12:38:24;;;;;;;;;;;;;;;;;;;;;
2021/10/11 12:41:25;;;;;;;3.37;1.93;;;18.10;60.40;;;;;;4964584;29;20518;-91
2021/10/11 12:46:53;;;;;;;3.03;2.50;;;17.70;62.50;;;;;;4965606;29;20409;-91
2021/10/11 12:50:18;;;;;;;3.13;2.03;;;17.60;63.70;;;;;;5009794;23;20558;-91
2021/10/11 12:53:07;;;;;;;4.13;2.23;;;17.60;60.90;;;;;;4888004;29;20422;-89
2021/10/11 12:55:38;;;;;;;6.00;2.30;;;20.00;63.90;;;;;;4872669;29;20441;-91
2021/10/11 13:02:07;;;;;;;6.33;2.40;;;22.20;57.20;;;;;;4929323;29;20443;-90
2021/10/11 13:05:12;;;;;;;;;;;;;;;;;;;;;
2021/10/11 13:07:54;;;;;;;4.07;1.93;;;23.40;50.50;;;;;;4953177;29;20446;-89
2021/10/11 13:11:10;;;;;;;2.00;1.37;;;24.10;52.40;;;;;;4935185;29;20486;-92
2021/10/11 13:14:09;;;;;;;4.00;2.07;;;22.40;49.10;;;;;;4950743;29;20531;-93
2021/10/11 13:16:38;;;;;;;5.63;2.33;;;24.50;50.10;;;;;;4931972;29;20430;-92
2021/10/11 13:19:49;;;;;;;5.40;2.63;;;23.40;48.00;;;;;;4931023;29;20481;-91
2021/10/11 13:37:16;;;;;;;5.40;2.90;;;23.20;46.50;;;;;;4937084;29;20416;-91
2021/10/11 14:28:11;;;;;;;3.23;2.53;;;22.40;51.90;;;;;;4901389;29;20544;-89
2021/10/11 14:30:55;;;;;;;4.30;3.03;;;22.20;54.00;;;;;;4883347;29;20549;-87
2021/10/11 14:33:41;;;;;;;5.60;2.53;;;20.50;51.20;;;;;;4884357;29;20203;-88
2021/10/11 15:58:31;;;;;;;7.17;3.83;;;17.90;99.90;;;;;;5085466;28;20469;-92